sensor_id;sensor_type;location;lat;lon;timestamp;temperature;humidity
15630;DHT22;7914;50.842;0.166;2023-09-19T00:00:23;14.60;100.00
15630;DHT22;7914;50.842;0.166;2023-09-19T00:02:58;14.60;100.00
15630;DHT22;7914;50.842;0.166;2023-09-19T00:05:27;14.50;100.00
15630;DHT22;7914;50.842;0.166;2023-09-19T00:07:54;14.60;100.00
15630;DHT22;7914;50.842;0.166;2023-09-19T00:10:25;14.50;100.00
15630;DHT22;7914;50.842;0.166;2023-09-19T00:12:55;14.60;100.00
15630;DHT22;7914;50.842;0.166;2023-09-19T00:15:22;14.60;100.00
15630;DHT22;7914;50.842;0.166;2023-09-19T00:17:47;14.60;100.00
15630;DHT22;7914;50.842;0.166;2023-09-19T00:20:14;14.60;100.00
15630;DHT22;7914;50.842;0.166;2023-09-19T00:22:42;14.70;100.00
15630;DHT22;7914;50.842;0.166;2023-09-19T00:25:09;14.70;100.00
15630;DHT22;7914;50.842;0.166;2023-09-19T00:27:36;14.70;100.00
15630;DHT22;7914;50.842;0.166;2023-09-19T00:30:10;14.70;100.00
15630;DHT22;7914;50.842;0.166;2023-09-19T00:32:40;14.70;100.00
15630;DHT22;7914;50.842;0.166;2023-09-19T00:35:06;14.70;100.00
15630;DHT22;7914;50.842;0.166;2023-09-19T00:37:34;14.70;100.00
15630;DHT22;7914;50.842;0.166;2023-09-19T00:40:02;14.70;100.00
15630;DHT22;7914;50.842;0.166;2023-09-19T00:42:28;14.70;100.00
15630;DHT22;7914;50.842;0.166;2023-09-19T00:44:54;14.70;100.00
15630;DHT22;7914;50.842;0.166;2023-09-19T00:47:20;14.70;100.00
15630;DHT22;7914;50.842;0.166;2023-09-19T00:49:45;14.80;100.00
15630;DHT22;7914;50.842;0.166;2023-09-19T00:52:14;14.80;100.00
15630;DHT22;7914;50.842;0.166;2023-09-19T00:54:41;14.80;100.00
15630;DHT22;7914;50.842;0.166;2023-09-19T00:57:07;14.80;100.00
15630;DHT22;7914;50.842;0.166;2023-09-19T00:59:34;14.70;100.00
15630;DHT22;7914;50.842;0.166;2023-09-19T01:02:02;14.70;100.00
15630;DHT22;7914;50.842;0.166;2023-09-19T01:04:28;14.80;100.00
15630;DHT22;7914;50.842;0.166;2023-09-19T01:06:54;14.80;100.00
15630;DHT22;7914;50.842;0.166;2023-09-19T01:09:20;14.80;100.00
15630;DHT22;7914;50.842;0.166;2023-09-19T01:11:48;14.80;100.00
15630;DHT22;7914;50.842;0.166;2023-09-19T01:14:24;14.80;100.00
15630;DHT22;7914;50.842;0.166;2023-09-19T01:17:03;14.80;100.00
15630;DHT22;7914;50.842;0.166;2023-09-19T01:22:29;14.90;100.00
15630;DHT22;7914;50.842;0.166;2023-09-19T01:28:15;15.10;100.00
15630;DHT22;7914;50.842;0.166;2023-09-19T01:30:46;15.10;100.00
15630;DHT22;7914;50.842;0.166;2023-09-19T01:33:12;15.10;100.00
15630;DHT22;7914;50.842;0.166;2023-09-19T01:35:40;15.10;100.00
15630;DHT22;7914;50.842;0.166;2023-09-19T01:38:06;15.10;100.00
15630;DHT22;7914;50.842;0.166;2023-09-19T01:40:43;15.00;100.00
15630;DHT22;7914;50.842;0.166;2023-09-19T01:43:27;15.00;100.00
15630;DHT22;7914;50.842;0.166;2023-09-19T01:46:06;14.90;100.00
15630;DHT22;7914;50.842;0.166;2023-09-19T01:49:07;14.90;100.00
15630;DHT22;7914;50.842;0.166;2023-09-19T01:52:05;14.80;100.00
15630;DHT22;7914;50.842;0.166;2023-09-19T01:54:46;14.80;100.00
15630;DHT22;7914;50.842;0.166;2023-09-19T01:57:35;14.80;100.00
15630;DHT22;7914;50.842;0.166;2023-09-19T02:00:08;14.70;100.00
15630;DHT22;7914;50.842;0.166;2023-09-19T02:02:36;14.70;100.00
15630;DHT22;7914;50.842;0.166;2023-09-19T02:05:03;14.60;100.00
15630;DHT22;7914;50.842;0.166;2023-09-19T02:07:30;14.60;100.00
15630;DHT22;7914;50.842;0.166;2023-09-19T02:10:00;14.50;100.00
15630;DHT22;7914;50.842;0.166;2023-09-19T02:12:26;14.50;100.00
15630;DHT22;7914;50.842;0.166;2023-09-19T02:14:52;14.40;100.00
15630;DHT22;7914;50.842;0.166;2023-09-19T02:17:18;14.40;100.00
15630;DHT22;7914;50.842;0.166;2023-09-19T02:19:44;14.30;100.00
15630;DHT22;7914;50.842;0.166;2023-09-19T02:22:10;14.20;100.00
15630;DHT22;7914;50.842;0.166;2023-09-19T02:24:37;14.30;100.00
15630;DHT22;7914;50.842;0.166;2023-09-19T02:27:04;14.30;100.00
15630;DHT22;7914;50.842;0.166;2023-09-19T02:29:30;14.40;100.00
15630;DHT22;7914;50.842;0.166;2023-09-19T02:31:56;14.40;100.00
15630;DHT22;7914;50.842;0.166;2023-09-19T02:34:22;14.40;100.00
15630;DHT22;7914;50.842;0.166;2023-09-19T02:36:48;14.40;100.00
15630;DHT22;7914;50.842;0.166;2023-09-19T02:39:14;14.30;100.00
15630;DHT22;7914;50.842;0.166;2023-09-19T02:41:40;14.40;100.00
15630;DHT22;7914;50.842;0.166;2023-09-19T02:44:07;14.40;100.00
15630;DHT22;7914;50.842;0.166;2023-09-19T02:46:36;14.40;100.00
15630;DHT22;7914;50.842;0.166;2023-09-19T02:49:03;14.40;100.00
15630;DHT22;7914;50.842;0.166;2023-09-19T02:51:32;14.30;100.00
15630;DHT22;7914;50.842;0.166;2023-09-19T02:53:59;14.30;100.00
15630;DHT22;7914;50.842;0.166;2023-09-19T02:56:25;14.30;100.00
15630;DHT22;7914;50.842;0.166;2023-09-19T02:58:51;14.40;100.00
15630;DHT22;7914;50.842;0.166;2023-09-19T03:01:17;14.40;100.00
15630;DHT22;7914;50.842;0.166;2023-09-19T03:03:44;14.50;100.00
15630;DHT22;7914;50.842;0.166;2023-09-19T03:06:10;14.50;100.00
15630;DHT22;7914;50.842;0.166;2023-09-19T03:08:38;14.50;100.00
15630;DHT22;7914;50.842;0.166;2023-09-19T03:11:05;14.60;100.00
15630;DHT22;7914;50.842;0.166;2023-09-19T03:13:32;14.60;100.00
15630;DHT22;7914;50.842;0.166;2023-09-19T03:15:58;14.70;100.00
15630;DHT22;7914;50.842;0.166;2023-09-19T03:18:24;14.70;100.00
15630;DHT22;7914;50.842;0.166;2023-09-19T03:20:55;14.70;100.00
15630;DHT22;7914;50.842;0.166;2023-09-19T03:23:22;14.70;100.00
15630;DHT22;7914;50.842;0.166;2023-09-19T03:25:48;14.80;100.00
15630;DHT22;7914;50.842;0.166;2023-09-19T03:28:13;14.90;100.00
15630;DHT22;7914;50.842;0.166;2023-09-19T03:30:41;14.90;100.00
15630;DHT22;7914;50.842;0.166;2023-09-19T03:33:06;15.00;100.00
15630;DHT22;7914;50.842;0.166;2023-09-19T03:35:32;15.00;100.00
15630;DHT22;7914;50.842;0.166;2023-09-19T03:37:58;15.00;100.00
15630;DHT22;7914;50.842;0.166;2023-09-19T03:40:24;15.00;100.00
15630;DHT22;7914;50.842;0.166;2023-09-19T03:42:50;15.10;100.00
15630;DHT22;7914;50.842;0.166;2023-09-19T03:45:16;15.20;100.00
15630;DHT22;7914;50.842;0.166;2023-09-19T03:47:43;15.10;100.00
15630;DHT22;7914;50.842;0.166;2023-09-19T03:50:09;15.10;100.00
15630;DHT22;7914;50.842;0.166;2023-09-19T03:52:40;15.00;100.00
15630;DHT22;7914;50.842;0.166;2023-09-19T03:55:06;14.80;100.00
15630;DHT22;7914;50.842;0.166;2023-09-19T03:57:32;14.70;100.00
15630;DHT22;7914;50.842;0.166;2023-09-19T03:59:58;14.60;100.00
15630;DHT22;7914;50.842;0.166;2023-09-19T04:02:24;14.50;100.00
15630;DHT22;7914;50.842;0.166;2023-09-19T04:04:51;14.50;100.00
15630;DHT22;7914;50.842;0.166;2023-09-19T04:07:18;14.70;100.00
15630;DHT22;7914;50.842;0.166;2023-09-19T04:09:48;14.70;100.00
15630;DHT22;7914;50.842;0.166;2023-09-19T04:12:14;14.80;100.00
15630;DHT22;7914;50.842;0.166;2023-09-19T04:14:42;14.90;100.00
15630;DHT22;7914;50.842;0.166;2023-09-19T04:17:08;14.90;100.00
15630;DHT22;7914;50.842;0.166;2023-09-19T04:19:34;15.00;100.00
15630;DHT22;7914;50.842;0.166;2023-09-19T04:22:01;15.10;100.00
15630;DHT22;7914;50.842;0.166;2023-09-19T04:24:27;15.20;100.00
15630;DHT22;7914;50.842;0.166;2023-09-19T04:26:52;15.20;100.00
15630;DHT22;7914;50.842;0.166;2023-09-19T04:29:18;15.30;100.00
15630;DHT22;7914;50.842;0.166;2023-09-19T04:31:45;15.30;100.00
15630;DHT22;7914;50.842;0.166;2023-09-19T04:34:11;15.30;100.00
15630;DHT22;7914;50.842;0.166;2023-09-19T04:36:43;15.30;100.00
15630;DHT22;7914;50.842;0.166;2023-09-19T04:39:09;15.20;100.00
15630;DHT22;7914;50.842;0.166;2023-09-19T04:41:36;15.30;100.00
15630;DHT22;7914;50.842;0.166;2023-09-19T04:44:05;15.30;100.00
15630;DHT22;7914;50.842;0.166;2023-09-19T04:46:31;15.40;100.00
15630;DHT22;7914;50.842;0.166;2023-09-19T04:48:56;15.40;100.00
15630;DHT22;7914;50.842;0.166;2023-09-19T04:51:23;15.40;100.00
15630;DHT22;7914;50.842;0.166;2023-09-19T04:53:49;15.50;100.00
15630;DHT22;7914;50.842;0.166;2023-09-19T04:56:14;15.50;100.00
15630;DHT22;7914;50.842;0.166;2023-09-19T04:58:40;15.50;100.00
15630;DHT22;7914;50.842;0.166;2023-09-19T05:01:06;15.50;100.00
15630;DHT22;7914;50.842;0.166;2023-09-19T05:03:37;15.60;100.00
15630;DHT22;7914;50.842;0.166;2023-09-19T05:06:04;15.60;100.00
15630;DHT22;7914;50.842;0.166;2023-09-19T05:08:31;15.60;100.00
15630;DHT22;7914;50.842;0.166;2023-09-19T05:10:56;15.60;100.00
15630;DHT22;7914;50.842;0.166;2023-09-19T05:13:22;15.70;100.00
15630;DHT22;7914;50.842;0.166;2023-09-19T05:15:51;15.60;100.00
15630;DHT22;7914;50.842;0.166;2023-09-19T05:18:16;15.70;100.00
15630;DHT22;7914;50.842;0.166;2023-09-19T05:20:42;15.80;100.00
15630;DHT22;7914;50.842;0.166;2023-09-19T05:23:08;15.80;100.00
15630;DHT22;7914;50.842;0.166;2023-09-19T05:25:38;15.80;100.00
15630;DHT22;7914;50.842;0.166;2023-09-19T05:28:09;15.70;100.00
15630;DHT22;7914;50.842;0.166;2023-09-19T05:30:37;15.70;100.00
15630;DHT22;7914;50.842;0.166;2023-09-19T05:33:04;15.70;100.00
15630;DHT22;7914;50.842;0.166;2023-09-19T05:35:31;15.80;100.00
15630;DHT22;7914;50.842;0.166;2023-09-19T05:37:57;15.80;100.00
15630;DHT22;7914;50.842;0.166;2023-09-19T05:40:24;15.80;100.00
15630;DHT22;7914;50.842;0.166;2023-09-19T05:42:50;15.80;100.00
15630;DHT22;7914;50.842;0.166;2023-09-19T05:45:18;15.80;100.00
15630;DHT22;7914;50.842;0.166;2023-09-19T05:47:48;15.80;100.00
15630;DHT22;7914;50.842;0.166;2023-09-19T05:50:15;15.90;100.00
15630;DHT22;7914;50.842;0.166;2023-09-19T05:52:42;16.00;100.00
15630;DHT22;7914;50.842;0.166;2023-09-19T05:55:09;16.00;100.00
15630;DHT22;7914;50.842;0.166;2023-09-19T05:57:36;15.60;100.00
15630;DHT22;7914;50.842;0.166;2023-09-19T06:00:05;15.40;100.00
15630;DHT22;7914;50.842;0.166;2023-09-19T06:02:35;15.30;100.00
15630;DHT22;7914;50.842;0.166;2023-09-19T06:05:01;15.20;100.00
15630;DHT22;7914;50.842;0.166;2023-09-19T06:07:27;15.20;100.00
15630;DHT22;7914;50.842;0.166;2023-09-19T06:10:02;15.20;100.00
15630;DHT22;7914;50.842;0.166;2023-09-19T06:12:31;15.20;100.00
15630;DHT22;7914;50.842;0.166;2023-09-19T06:14:59;15.20;100.00
15630;DHT22;7914;50.842;0.166;2023-09-19T06:17:25;15.20;100.00
15630;DHT22;7914;50.842;0.166;2023-09-19T06:19:52;15.20;100.00
15630;DHT22;7914;50.842;0.166;2023-09-19T06:22:18;15.20;100.00
15630;DHT22;7914;50.842;0.166;2023-09-19T06:24:44;15.20;100.00
15630;DHT22;7914;50.842;0.166;2023-09-19T06:27:10;15.20;100.00
15630;DHT22;7914;50.842;0.166;2023-09-19T06:29:36;15.30;100.00
15630;DHT22;7914;50.842;0.166;2023-09-19T06:32:10;15.30;100.00
15630;DHT22;7914;50.842;0.166;2023-09-19T06:34:36;15.40;100.00
15630;DHT22;7914;50.842;0.166;2023-09-19T06:37:04;15.50;100.00
15630;DHT22;7914;50.842;0.166;2023-09-19T06:39:31;15.50;100.00
15630;DHT22;7914;50.842;0.166;2023-09-19T06:41:57;15.60;100.00
15630;DHT22;7914;50.842;0.166;2023-09-19T06:44:23;15.70;100.00
15630;DHT22;7914;50.842;0.166;2023-09-19T06:46:50;15.70;100.00
15630;DHT22;7914;50.842;0.166;2023-09-19T06:49:17;15.70;100.00
15630;DHT22;7914;50.842;0.166;2023-09-19T06:51:43;15.80;100.00
15630;DHT22;7914;50.842;0.166;2023-09-19T06:54:10;15.80;100.00
15630;DHT22;7914;50.842;0.166;2023-09-19T06:56:35;15.80;100.00
15630;DHT22;7914;50.842;0.166;2023-09-19T06:59:01;15.80;100.00
15630;DHT22;7914;50.842;0.166;2023-09-19T07:01:28;15.70;100.00
15630;DHT22;7914;50.842;0.166;2023-09-19T07:03:54;15.70;100.00
15630;DHT22;7914;50.842;0.166;2023-09-19T07:06:20;15.60;100.00
15630;DHT22;7914;50.842;0.166;2023-09-19T07:08:46;15.70;100.00
15630;DHT22;7914;50.842;0.166;2023-09-19T07:11:12;15.70;100.00
15630;DHT22;7914;50.842;0.166;2023-09-19T07:13:38;15.70;100.00
15630;DHT22;7914;50.842;0.166;2023-09-19T07:16:04;15.60;100.00
15630;DHT22;7914;50.842;0.166;2023-09-19T07:18:30;15.50;100.00
15630;DHT22;7914;50.842;0.166;2023-09-19T07:20:57;15.40;100.00
15630;DHT22;7914;50.842;0.166;2023-09-19T07:23:30;15.50;100.00
15630;DHT22;7914;50.842;0.166;2023-09-19T07:26:01;15.60;100.00
15630;DHT22;7914;50.842;0.166;2023-09-19T07:28:26;15.90;100.00
15630;DHT22;7914;50.842;0.166;2023-09-19T07:30:53;16.00;100.00
15630;DHT22;7914;50.842;0.166;2023-09-19T07:33:19;16.10;100.00
15630;DHT22;7914;50.842;0.166;2023-09-19T07:35:46;16.20;100.00
15630;DHT22;7914;50.842;0.166;2023-09-19T07:38:12;16.20;100.00
15630;DHT22;7914;50.842;0.166;2023-09-19T07:40:38;16.30;100.00
15630;DHT22;7914;50.842;0.166;2023-09-19T07:43:03;16.30;100.00
15630;DHT22;7914;50.842;0.166;2023-09-19T07:45:30;16.40;100.00
15630;DHT22;7914;50.842;0.166;2023-09-19T07:47:57;16.50;100.00
15630;DHT22;7914;50.842;0.166;2023-09-19T07:50:23;16.50;100.00
15630;DHT22;7914;50.842;0.166;2023-09-19T07:52:50;16.60;100.00
15630;DHT22;7914;50.842;0.166;2023-09-19T07:55:19;16.50;100.00
15630;DHT22;7914;50.842;0.166;2023-09-19T07:57:48;16.50;100.00
15630;DHT22;7914;50.842;0.166;2023-09-19T08:00:14;16.60;100.00
15630;DHT22;7914;50.842;0.166;2023-09-19T08:02:41;16.60;100.00
15630;DHT22;7914;50.842;0.166;2023-09-19T08:05:08;16.70;100.00
15630;DHT22;7914;50.842;0.166;2023-09-19T08:07:41;16.70;100.00
15630;DHT22;7914;50.842;0.166;2023-09-19T08:10:07;16.90;100.00
15630;DHT22;7914;50.842;0.166;2023-09-19T08:12:39;17.00;100.00
15630;DHT22;7914;50.842;0.166;2023-09-19T08:15:15;17.10;100.00
15630;DHT22;7914;50.842;0.166;2023-09-19T08:17:41;17.10;100.00
15630;DHT22;7914;50.842;0.166;2023-09-19T08:20:08;16.90;100.00
15630;DHT22;7914;50.842;0.166;2023-09-19T08:22:49;16.80;100.00
15630;DHT22;7914;50.842;0.166;2023-09-19T08:25:18;16.90;100.00
15630;DHT22;7914;50.842;0.166;2023-09-19T08:27:48;17.00;100.00
15630;DHT22;7914;50.842;0.166;2023-09-19T08:30:21;17.10;100.00
15630;DHT22;7914;50.842;0.166;2023-09-19T08:32:59;17.30;100.00
15630;DHT22;7914;50.842;0.166;2023-09-19T08:35:25;17.40;100.00
15630;DHT22;7914;50.842;0.166;2023-09-19T08:37:51;17.50;100.00
15630;DHT22;7914;50.842;0.166;2023-09-19T08:40:17;17.50;100.00
15630;DHT22;7914;50.842;0.166;2023-09-19T08:42:53;17.50;100.00
15630;DHT22;7914;50.842;0.166;2023-09-19T08:45:23;17.50;100.00
15630;DHT22;7914;50.842;0.166;2023-09-19T08:56:19;17.60;100.00
15630;DHT22;7914;50.842;0.166;2023-09-19T08:58:54;17.50;100.00
15630;DHT22;7914;50.842;0.166;2023-09-19T09:01:22;17.40;100.00
15630;DHT22;7914;50.842;0.166;2023-09-19T09:03:52;17.40;100.00
15630;DHT22;7914;50.842;0.166;2023-09-19T09:06:20;17.40;100.00
15630;DHT22;7914;50.842;0.166;2023-09-19T09:08:46;17.40;100.00
15630;DHT22;7914;50.842;0.166;2023-09-19T09:11:13;17.60;100.00
15630;DHT22;7914;50.842;0.166;2023-09-19T09:13:40;17.90;100.00
15630;DHT22;7914;50.842;0.166;2023-09-19T09:16:07;18.20;100.00
15630;DHT22;7914;50.842;0.166;2023-09-19T09:18:33;18.30;100.00
15630;DHT22;7914;50.842;0.166;2023-09-19T09:20:59;18.50;100.00
15630;DHT22;7914;50.842;0.166;2023-09-19T09:23:27;18.50;100.00
15630;DHT22;7914;50.842;0.166;2023-09-19T09:25:55;18.30;100.00
15630;DHT22;7914;50.842;0.166;2023-09-19T09:28:35;18.10;100.00
15630;DHT22;7914;50.842;0.166;2023-09-19T09:31:05;17.90;100.00
15630;DHT22;7914;50.842;0.166;2023-09-19T09:33:39;17.90;100.00
15630;DHT22;7914;50.842;0.166;2023-09-19T09:36:07;18.00;100.00
15630;DHT22;7914;50.842;0.166;2023-09-19T09:38:45;18.10;100.00
15630;DHT22;7914;50.842;0.166;2023-09-19T09:41:12;18.20;100.00
15630;DHT22;7914;50.842;0.166;2023-09-19T09:43:41;18.50;100.00
15630;DHT22;7914;50.842;0.166;2023-09-19T09:48:58;19.10;100.00
15630;DHT22;7914;50.842;0.166;2023-09-19T09:52:06;18.80;100.00
15630;DHT22;7914;50.842;0.166;2023-09-19T09:55:03;18.60;100.00
15630;DHT22;7914;50.842;0.166;2023-09-19T09:57:33;18.60;100.00
15630;DHT22;7914;50.842;0.166;2023-09-19T10:00:00;18.60;100.00
15630;DHT22;7914;50.842;0.166;2023-09-19T10:02:46;18.60;100.00
15630;DHT22;7914;50.842;0.166;2023-09-19T10:05:18;18.40;100.00
15630;DHT22;7914;50.842;0.166;2023-09-19T10:08:11;18.30;100.00
15630;DHT22;7914;50.842;0.166;2023-09-19T10:10:39;18.90;100.00
15630;DHT22;7914;50.842;0.166;2023-09-19T10:13:13;19.10;100.00
15630;DHT22;7914;50.842;0.166;2023-09-19T10:15:43;19.00;100.00
15630;DHT22;7914;50.842;0.166;2023-09-19T10:18:20;19.00;100.00
15630;DHT22;7914;50.842;0.166;2023-09-19T10:20:47;19.30;100.00
15630;DHT22;7914;50.842;0.166;2023-09-19T10:23:14;19.60;100.00
15630;DHT22;7914;50.842;0.166;2023-09-19T10:25:49;19.70;100.00
15630;DHT22;7914;50.842;0.166;2023-09-19T10:28:16;19.30;100.00
15630;DHT22;7914;50.842;0.166;2023-09-19T10:30:48;19.10;100.00
15630;DHT22;7914;50.842;0.166;2023-09-19T10:33:17;18.70;100.00
15630;DHT22;7914;50.842;0.166;2023-09-19T10:35:43;18.60;100.00
15630;DHT22;7914;50.842;0.166;2023-09-19T10:38:11;18.40;100.00
15630;DHT22;7914;50.842;0.166;2023-09-19T10:40:38;18.50;100.00
15630;DHT22;7914;50.842;0.166;2023-09-19T10:43:18;18.60;100.00
15630;DHT22;7914;50.842;0.166;2023-09-19T10:45:49;18.60;100.00
15630;DHT22;7914;50.842;0.166;2023-09-19T10:48:19;18.60;100.00
15630;DHT22;7914;50.842;0.166;2023-09-19T10:51:02;18.40;100.00
15630;DHT22;7914;50.842;0.166;2023-09-19T10:53:47;18.40;100.00
15630;DHT22;7914;50.842;0.166;2023-09-19T10:56:21;18.50;100.00
15630;DHT22;7914;50.842;0.166;2023-09-19T10:58:48;18.60;100.00
15630;DHT22;7914;50.842;0.166;2023-09-19T11:01:14;18.60;100.00
15630;DHT22;7914;50.842;0.166;2023-09-19T11:03:41;18.50;100.00
15630;DHT22;7914;50.842;0.166;2023-09-19T11:06:18;18.30;100.00
15630;DHT22;7914;50.842;0.166;2023-09-19T11:08:56;18.20;100.00
15630;DHT22;7914;50.842;0.166;2023-09-19T11:30:33;18.20;100.00
15630;DHT22;7914;50.842;0.166;2023-09-19T11:33:24;18.20;100.00
15630;DHT22;7914;50.842;0.166;2023-09-19T11:41:36;18.00;100.00
15630;DHT22;7914;50.842;0.166;2023-09-19T11:46:33;18.10;100.00
15630;DHT22;7914;50.842;0.166;2023-09-19T11:49:06;18.10;100.00
15630;DHT22;7914;50.842;0.166;2023-09-19T11:51:42;18.10;100.00
15630;DHT22;7914;50.842;0.166;2023-09-19T11:54:13;18.10;100.00
15630;DHT22;7914;50.842;0.166;2023-09-19T11:56:48;18.20;100.00
15630;DHT22;7914;50.842;0.166;2023-09-19T11:59:23;18.30;100.00
15630;DHT22;7914;50.842;0.166;2023-09-19T12:02:15;18.30;100.00
15630;DHT22;7914;50.842;0.166;2023-09-19T12:04:41;18.20;100.00
15630;DHT22;7914;50.842;0.166;2023-09-19T12:07:13;18.10;100.00
15630;DHT22;7914;50.842;0.166;2023-09-19T12:09:49;18.00;100.00
15630;DHT22;7914;50.842;0.166;2023-09-19T12:12:34;18.00;100.00
15630;DHT22;7914;50.842;0.166;2023-09-19T12:14:59;18.00;100.00
15630;DHT22;7914;50.842;0.166;2023-09-19T12:17:39;18.00;100.00
15630;DHT22;7914;50.842;0.166;2023-09-19T12:20:06;18.00;100.00
15630;DHT22;7914;50.842;0.166;2023-09-19T12:22:43;18.00;100.00
15630;DHT22;7914;50.842;0.166;2023-09-19T12:25:09;18.00;100.00
15630;DHT22;7914;50.842;0.166;2023-09-19T12:27:47;18.10;100.00
15630;DHT22;7914;50.842;0.166;2023-09-19T12:30:27;18.20;100.00
15630;DHT22;7914;50.842;0.166;2023-09-19T12:32:54;18.30;100.00
15630;DHT22;7914;50.842;0.166;2023-09-19T12:35:28;18.30;100.00
15630;DHT22;7914;50.842;0.166;2023-09-19T12:37:55;18.40;100.00
15630;DHT22;7914;50.842;0.166;2023-09-19T12:40:22;18.30;100.00
15630;DHT22;7914;50.842;0.166;2023-09-19T12:42:53;18.30;100.00
15630;DHT22;7914;50.842;0.166;2023-09-19T12:45:24;18.40;100.00
15630;DHT22;7914;50.842;0.166;2023-09-19T12:51:06;18.30;100.00
15630;DHT22;7914;50.842;0.166;2023-09-19T12:53:34;18.40;100.00
15630;DHT22;7914;50.842;0.166;2023-09-19T12:56:03;18.40;100.00
15630;DHT22;7914;50.842;0.166;2023-09-19T12:58:34;18.40;100.00
15630;DHT22;7914;50.842;0.166;2023-09-19T13:01:01;18.20;100.00
15630;DHT22;7914;50.842;0.166;2023-09-19T13:03:30;18.10;100.00
15630;DHT22;7914;50.842;0.166;2023-09-19T13:06:04;18.00;100.00
15630;DHT22;7914;50.842;0.166;2023-09-19T13:08:32;18.00;100.00
15630;DHT22;7914;50.842;0.166;2023-09-19T13:11:17;17.90;100.00
15630;DHT22;7914;50.842;0.166;2023-09-19T13:14:12;17.80;100.00
15630;DHT22;7914;50.842;0.166;2023-09-19T13:17:04;17.70;100.00
15630;DHT22;7914;50.842;0.166;2023-09-19T13:19:48;17.60;100.00
15630;DHT22;7914;50.842;0.166;2023-09-19T13:25:14;17.60;100.00
15630;DHT22;7914;50.842;0.166;2023-09-19T13:27:45;17.70;100.00
15630;DHT22;7914;50.842;0.166;2023-09-19T13:30:17;17.70;100.00
15630;DHT22;7914;50.842;0.166;2023-09-19T13:32:44;17.70;100.00
15630;DHT22;7914;50.842;0.166;2023-09-19T13:35:13;17.80;100.00
15630;DHT22;7914;50.842;0.166;2023-09-19T13:37:41;17.80;100.00
15630;DHT22;7914;50.842;0.166;2023-09-19T13:40:12;17.80;100.00
15630;DHT22;7914;50.842;0.166;2023-09-19T13:42:38;17.80;100.00
15630;DHT22;7914;50.842;0.166;2023-09-19T13:45:05;17.80;100.00
15630;DHT22;7914;50.842;0.166;2023-09-19T13:47:32;17.80;100.00
15630;DHT22;7914;50.842;0.166;2023-09-19T13:50:02;17.80;100.00
15630;DHT22;7914;50.842;0.166;2023-09-19T13:52:30;17.70;100.00
15630;DHT22;7914;50.842;0.166;2023-09-19T13:54:56;17.70;100.00
15630;DHT22;7914;50.842;0.166;2023-09-19T13:57:26;17.70;100.00
15630;DHT22;7914;50.842;0.166;2023-09-19T13:59:52;17.60;100.00
15630;DHT22;7914;50.842;0.166;2023-09-19T14:02:20;17.60;100.00
15630;DHT22;7914;50.842;0.166;2023-09-19T14:04:48;17.60;100.00
15630;DHT22;7914;50.842;0.166;2023-09-19T14:07:15;17.60;100.00
15630;DHT22;7914;50.842;0.166;2023-09-19T14:09:41;17.70;100.00
15630;DHT22;7914;50.842;0.166;2023-09-19T14:12:07;17.70;100.00
15630;DHT22;7914;50.842;0.166;2023-09-19T14:14:33;17.70;100.00
15630;DHT22;7914;50.842;0.166;2023-09-19T14:16:58;17.70;100.00
15630;DHT22;7914;50.842;0.166;2023-09-19T14:19:29;17.80;100.00
15630;DHT22;7914;50.842;0.166;2023-09-19T14:21:55;17.90;100.00
15630;DHT22;7914;50.842;0.166;2023-09-19T14:24:21;18.00;100.00
15630;DHT22;7914;50.842;0.166;2023-09-19T14:26:48;18.10;100.00
15630;DHT22;7914;50.842;0.166;2023-09-19T14:29:15;18.10;100.00
15630;DHT22;7914;50.842;0.166;2023-09-19T14:31:42;18.10;100.00
15630;DHT22;7914;50.842;0.166;2023-09-19T14:34:08;18.20;100.00
15630;DHT22;7914;50.842;0.166;2023-09-19T14:36:37;18.20;100.00
15630;DHT22;7914;50.842;0.166;2023-09-19T14:39:04;18.30;100.00
15630;DHT22;7914;50.842;0.166;2023-09-19T14:41:30;18.40;100.00
15630;DHT22;7914;50.842;0.166;2023-09-19T14:43:56;18.30;100.00
15630;DHT22;7914;50.842;0.166;2023-09-19T14:46:22;18.30;100.00
15630;DHT22;7914;50.842;0.166;2023-09-19T14:48:51;18.10;100.00
15630;DHT22;7914;50.842;0.166;2023-09-19T14:51:17;18.00;100.00
15630;DHT22;7914;50.842;0.166;2023-09-19T14:53:44;18.00;100.00
15630;DHT22;7914;50.842;0.166;2023-09-19T14:56:11;18.00;100.00
15630;DHT22;7914;50.842;0.166;2023-09-19T14:58:37;18.00;100.00
15630;DHT22;7914;50.842;0.166;2023-09-19T15:01:05;17.80;100.00
15630;DHT22;7914;50.842;0.166;2023-09-19T15:03:32;17.70;100.00
15630;DHT22;7914;50.842;0.166;2023-09-19T15:06:03;17.60;100.00
15630;DHT22;7914;50.842;0.166;2023-09-19T15:08:32;17.50;100.00
15630;DHT22;7914;50.842;0.166;2023-09-19T15:11:01;17.50;100.00
15630;DHT22;7914;50.842;0.166;2023-09-19T15:13:33;17.50;100.00
15630;DHT22;7914;50.842;0.166;2023-09-19T15:16:08;17.50;100.00
15630;DHT22;7914;50.842;0.166;2023-09-19T15:18:39;17.40;100.00
15630;DHT22;7914;50.842;0.166;2023-09-19T15:21:07;17.50;100.00
15630;DHT22;7914;50.842;0.166;2023-09-19T15:23:33;17.40;100.00
15630;DHT22;7914;50.842;0.166;2023-09-19T15:26:07;17.30;100.00
15630;DHT22;7914;50.842;0.166;2023-09-19T15:28:34;17.30;100.00
15630;DHT22;7914;50.842;0.166;2023-09-19T15:31:04;17.20;100.00
15630;DHT22;7914;50.842;0.166;2023-09-19T15:33:32;17.20;100.00
15630;DHT22;7914;50.842;0.166;2023-09-19T15:36:12;17.20;100.00
15630;DHT22;7914;50.842;0.166;2023-09-19T15:41:22;17.20;100.00
15630;DHT22;7914;50.842;0.166;2023-09-19T15:43:48;17.30;100.00
15630;DHT22;7914;50.842;0.166;2023-09-19T15:46:13;17.30;100.00
15630;DHT22;7914;50.842;0.166;2023-09-19T15:48:41;17.30;100.00
15630;DHT22;7914;50.842;0.166;2023-09-19T15:51:06;17.30;100.00
15630;DHT22;7914;50.842;0.166;2023-09-19T15:53:52;17.40;100.00
15630;DHT22;7914;50.842;0.166;2023-09-19T15:56:19;17.40;100.00
15630;DHT22;7914;50.842;0.166;2023-09-19T15:58:50;17.40;100.00
15630;DHT22;7914;50.842;0.166;2023-09-19T16:01:16;17.40;100.00
15630;DHT22;7914;50.842;0.166;2023-09-19T16:03:45;17.30;100.00
15630;DHT22;7914;50.842;0.166;2023-09-19T16:06:14;17.30;100.00
15630;DHT22;7914;50.842;0.166;2023-09-19T16:08:40;17.40;100.00
15630;DHT22;7914;50.842;0.166;2023-09-19T16:11:07;17.40;100.00
15630;DHT22;7914;50.842;0.166;2023-09-19T16:13:32;17.40;100.00
15630;DHT22;7914;50.842;0.166;2023-09-19T16:15:58;17.50;100.00
15630;DHT22;7914;50.842;0.166;2023-09-19T16:18:24;17.60;100.00
15630;DHT22;7914;50.842;0.166;2023-09-19T16:20:50;17.60;100.00
15630;DHT22;7914;50.842;0.166;2023-09-19T16:23:15;17.50;100.00
15630;DHT22;7914;50.842;0.166;2023-09-19T16:25:41;17.50;100.00
15630;DHT22;7914;50.842;0.166;2023-09-19T16:28:08;17.50;100.00
15630;DHT22;7914;50.842;0.166;2023-09-19T16:30:33;17.40;100.00
15630;DHT22;7914;50.842;0.166;2023-09-19T16:32:59;17.30;100.00
15630;DHT22;7914;50.842;0.166;2023-09-19T16:35:25;17.40;100.00